Flight Track Log - Related Links

Times and Time Zones

All times are in EDT time to prevent confusion due to time zone crossing. See the CSN6181 flight status page for this flight to view local times or setup timezone preferences in your user account.

Time Position Orientation Groundspeed Altitude Reporting Facility
EDT Latitude Longitude Course Direction KTS MPH feet Rate Location/Type
Thu 07:48:00 PM 43.8842 125.0590 257° West  Level Estimated
Thu 07:49:00 PM 43.8617 124.9207 257° West  Level Estimated
Thu 07:50:00 PM 43.8396 124.7865 257° West  Level Estimated
Thu 07:51:00 PM 43.8174 124.6524 257° West  Level Estimated
Thu 07:52:00 PM 43.7951 124.5184 257° West  Level Estimated
Thu 07:53:00 PM 43.7726 124.3845 257° West  Level Estimated
Thu 07:54:00 PM 43.7499 124.2507 257° West  Level Estimated
Thu 07:55:00 PM 43.7271 124.1170 257° West  Level Estimated
Thu 07:56:00 PM 43.7041 123.9834 257° West  Level Estimated
Thu 07:57:00 PM 43.6810 123.8499 257° West  Level Estimated
Thu 07:58:00 PM 43.6577 123.7165 256° West  Level Estimated
Thu 07:59:00 PM 43.6343 123.5832 256° West  Level Estimated
Thu 08:00:00 PM 43.6090 123.4405 256° West  Level Estimated
Thu 08:01:00 PM 43.5835 123.2978 256° West  Level Estimated
Thu 08:02:00 PM 43.5578 123.1552 256° West  Level Estimated
Thu 08:03:00 PM 43.5320 123.0128 256° West  Level Estimated
Thu 08:04:00 PM 43.5060 122.8705 256° West  Level Estimated
Thu 08:05:00 PM 43.4798 122.7283 256° West  Level Estimated
Thu 08:06:00 PM 43.4534 122.5863 256° West  Level Estimated
Thu 08:07:00 PM 43.4269 122.4443 256° West  Level Estimated
Thu 08:08:00 PM 43.4002 122.3025 256° West  Level Estimated
Thu 08:09:00 PM 43.3733 122.1608 255° West  Level Estimated
Thu 08:10:00 PM 43.3462 122.0193 255° West  Level Estimated
Thu 08:11:00 PM 43.3190 121.8778 255° West  Level Estimated
Thu 08:12:00 PM 43.2915 121.7365 255° West  Level Estimated
Thu 08:13:00 PM 43.2640 121.5954 255° West  Level Estimated
Thu 08:14:00 PM 43.2362 121.4543 255° West  Level Estimated
Thu 08:15:00 PM 43.2083 121.3134 255° West  Level Estimated
Thu 08:16:00 PM 43.1801 121.1726 255° West  Level Estimated
Thu 08:17:00 PM 43.1519 121.0319 255° West  Level Estimated
Thu 08:18:00 PM 43.1234 120.8914 255° West  Level Estimated
Thu 08:19:00 PM 43.0948 120.7510 254° West  Level Estimated
Thu 08:20:00 PM 43.0660 120.6107 254° West  Level Estimated
Thu 08:21:00 PM 43.0370 120.4706 254° West  Level Estimated
Thu 08:22:00 PM 43.0079 120.3306 254° West  Level Estimated
Thu 08:23:00 PM 42.9786 120.1907 254° West  Level Estimated
Thu 08:24:00 PM 42.9491 120.0510 254° West  Level Estimated
Thu 08:25:00 PM 42.9195 119.9114 254° West  Level Estimated
Thu 08:26:00 PM 42.8896 119.7719 254° West  Level Estimated
Thu 08:27:00 PM 42.8597 119.6326 254° West  Level Estimated
Thu 08:28:00 PM 42.8295 119.4934 254° West  Level Estimated
Thu 08:29:00 PM 42.7992 119.3543 253° West  Level Estimated
Thu 08:30:00 PM 42.7687 119.2154 253° West  Level Estimated
Thu 08:31:00 PM 42.7380 119.0766 253° West  Level Estimated
Thu 08:32:00 PM 42.7072 118.9380 253° West  Level Estimated
Thu 08:33:00 PM 42.6762 118.7995 253° West  Level Estimated
Thu 08:34:00 PM 42.6451 118.6611 253° West  Level Estimated
Thu 08:35:00 PM 42.6137 118.5229 253° West  Level Estimated
Thu 08:36:00 PM 42.5822 118.3848 253° West  Level Estimated
Thu 08:37:00 PM 42.5506 118.2468 253° West  Level Estimated
Thu 08:38:00 PM 42.5187 118.1090 253° West  Level Estimated
Thu 08:39:00 PM 42.4868 117.9713 253° West  Level Estimated
Thu 08:40:00 PM 42.4546 117.8338 252° West  Level Estimated
Thu 08:41:00 PM 42.4223 117.6964 252° West  Level Estimated
Thu 08:42:00 PM 42.3898 117.5592 252° West  Level Estimated
Thu 08:43:00 PM 42.3572 117.4221 252° West  Level Estimated
Thu 08:44:00 PM 42.3243 117.2851 252° West  Level Estimated
Thu 08:45:00 PM 42.2914 117.1483 252° West  Level Estimated
Thu 08:46:00 PM 42.2582 117.0116 252° West  Level Estimated
Thu 08:47:00 PM 42.2249 116.8751 252° West  Level Estimated
Thu 08:48:00 PM 42.1915 116.7387 252° West  Level Estimated
Thu 08:49:00 PM 42.1579 116.6024 252° West  Level Estimated
Thu 08:50:00 PM 42.1241 116.4663 252° West  Level Estimated
Thu 08:51:00 PM 42.0901 116.3304 251° West  Level Estimated
Thu 08:52:00 PM 42.0560 116.1946 251° West  Level Estimated
Thu 08:53:00 PM 42.0218 116.0589 251° West  Level Estimated
Thu 08:54:00 PM 41.9874 115.9234 251° West  Level Estimated
Thu 08:55:00 PM 41.9528 115.7880 251° West  Level Estimated
Thu 08:56:00 PM 41.9180 115.6528 251° West  Level Estimated
Thu 08:57:00 PM 41.8831 115.5177 251° West  Level Estimated
Thu 08:58:00 PM 41.8481 115.3828 251° West  Level Estimated
Thu 08:59:00 PM 41.8129 115.2480 251° West  Level Estimated
Thu 09:00:00 PM 41.7775 115.1134 251° West  Level Estimated
Thu 09:01:00 PM 41.7420 114.9789 251° West  Level Estimated
Thu 09:02:00 PM 41.7063 114.8446 250° West  Level Estimated
Thu 09:03:00 PM 41.6705 114.7104 250° West  Level Estimated
Thu 09:04:00 PM 41.6345 114.5764 250° West  Level Estimated
Thu 09:05:00 PM 41.5983 114.4425 250° West  Level Estimated
Thu 09:06:00 PM 41.5620 114.3087 250° West  Level Estimated
Thu 09:07:00 PM 41.5256 114.1752 250° West  Level Estimated
Thu 09:08:00 PM 41.4889 114.0417 250° West  Level Estimated
Thu 09:09:00 PM 41.4522 113.9084 250° West  Level Estimated
Thu 09:10:00 PM 41.4152 113.7753 250° West  Level Estimated
Thu 09:11:00 PM 41.3782 113.6423 250° West  Level Estimated
Thu 09:12:00 PM 41.3409 113.5095 250° West  Level Estimated
Thu 09:13:00 PM 41.3036 113.3768 249° West  Level Estimated
Thu 09:14:00 PM 41.2660 113.2443 249° West  Level Estimated
Thu 09:15:00 PM 41.2283 113.1120 249° West  Level Estimated
Thu 09:16:00 PM 41.1905 112.9797 249° West  Level Estimated
Thu 09:17:00 PM 41.1525 112.8477 249° West  Level Estimated
Thu 09:18:00 PM 41.1144 112.7158 249° West  Level Estimated
Thu 09:19:00 PM 41.0761 112.5840 249° West  Level Estimated
Thu 09:20:00 PM 41.0376 112.4524 249° West  Level Estimated
Thu 09:21:00 PM 40.9991 112.3210 249° West  Level Estimated
Thu 09:22:00 PM 40.9603 112.1897 249° West  Level Estimated
Thu 09:23:00 PM 40.9214 112.0585 249° West  Level Estimated
Thu 09:24:00 PM 40.8824 111.9276 249° West  Level Estimated
Thu 09:25:00 PM 40.8514 111.8241 248° West  Level Estimated
Thu 09:26:00 PM 40.8514 111.8241 North  Level Estimated
Thu 09:27:00 PM 40.8514 111.8241 North  Level Estimated
Thu 09:28:00 PM 40.8514 111.8241 North  Level Estimated
Thu 09:29:00 PM 40.8514 111.8241 North  Level Estimated
Thu 09:30:00 PM 40.8514 111.8241 North  Level Estimated
Thu 09:31:00 PM 40.8514 111.8241 North  Level Estimated
Thu 09:32:00 PM 40.8514 111.8241 North  Level Estimated
Thu 09:33:00 PM 40.8514 111.8241 North  Level Estimated
Thu 09:34:00 PM 40.8514 111.8241 North  Level Estimated

Login

Don't have an account? Register now (free) for customized features, flight alerts, and more!